createdAt,value
2017-06-28T00:01:36.799Z,6.10
2017-06-28T00:04:04.307Z,5.80
2017-06-28T00:06:31.840Z,5.77
2017-06-28T00:08:59.342Z,5.90
2017-06-28T00:11:26.838Z,5.67
2017-06-28T00:13:55.127Z,5.60
2017-06-28T00:16:22.646Z,5.57
2017-06-28T00:18:50.163Z,5.30
2017-06-28T00:21:17.663Z,5.80
2017-06-28T00:23:45.183Z,5.63
2017-06-28T00:26:12.688Z,5.60
2017-06-28T00:28:40.960Z,5.27
2017-06-28T00:31:08.476Z,6.47
2017-06-28T00:33:35.979Z,5.70
2017-06-28T00:36:04.266Z,6.27
2017-06-28T00:38:32.541Z,6.13
2017-06-28T00:41:00.085Z,6.07
2017-06-28T00:43:27.599Z,6.43
2017-06-28T00:45:55.103Z,5.90
2017-06-28T00:48:22.624Z,5.43
2017-06-28T00:50:50.131Z,5.57
2017-06-28T00:53:17.687Z,5.53
2017-06-28T00:55:45.951Z,5.83
2017-06-28T00:58:13.474Z,6.00
2017-06-28T01:00:40.976Z,5.70
2017-06-28T01:03:09.246Z,5.13
2017-06-28T01:05:36.767Z,5.67
2017-06-28T01:08:04.267Z,6.23
2017-06-28T01:10:32.560Z,5.70
2017-06-28T01:13:00.147Z,5.43
2017-06-28T01:15:28.474Z,5.30
2017-06-28T01:17:55.975Z,6.00
2017-06-28T01:20:23.475Z,5.70
2017-06-28T01:22:50.991Z,6.00
2017-06-28T01:25:18.499Z,5.73
2017-06-28T01:27:46.015Z,5.83
2017-06-28T01:30:13.519Z,6.20
2017-06-28T01:32:41.051Z,5.17
2017-06-28T01:35:08.573Z,5.77
2017-06-28T01:37:36.093Z,5.23
2017-06-28T01:40:03.624Z,5.43
2017-06-28T01:42:31.118Z,5.37
2017-06-28T01:44:58.634Z,6.37
2017-06-28T01:47:26.140Z,6.17
2017-06-28T01:49:53.659Z,6.40
2017-06-28T01:52:21.162Z,6.40
2017-06-28T01:54:48.663Z,5.70
2017-06-28T01:57:16.186Z,5.73
2017-06-28T01:59:43.687Z,5.67
2017-06-28T02:02:11.207Z,6.33
2017-06-28T02:04:38.715Z,5.27
2017-06-28T02:07:06.247Z,6.20
2017-06-28T02:09:33.747Z,5.40
2017-06-28T02:12:01.247Z,5.50
2017-06-28T02:14:28.771Z,5.27
2017-06-28T02:16:56.277Z,6.40
2017-06-28T02:19:23.799Z,6.03
2017-06-28T02:21:51.308Z,5.60
2017-06-28T02:24:18.835Z,5.47
2017-06-28T02:26:46.335Z,5.40
2017-06-28T02:29:13.840Z,5.83
2017-06-28T02:31:41.367Z,5.80
2017-06-28T02:34:08.867Z,5.20
2017-06-28T02:36:36.395Z,5.37
2017-06-28T02:39:03.906Z,5.17
2017-06-28T02:41:31.443Z,5.63
2017-06-28T02:43:58.947Z,6.27
2017-06-28T02:46:26.452Z,6.13
2017-06-28T02:48:54.731Z,6.13
2017-06-28T02:51:22.236Z,7.20
2017-06-28T02:53:49.754Z,6.90
2017-06-28T02:56:17.250Z,6.13
2017-06-28T02:58:44.776Z,7.10
2017-06-28T03:01:12.279Z,6.90
2017-06-28T03:03:39.779Z,6.60
2017-06-28T03:06:07.316Z,6.37
2017-06-28T03:08:35.636Z,6.47
2017-06-28T03:11:03.171Z,6.73
2017-06-28T03:13:30.693Z,7.07
2017-06-28T03:15:58.231Z,5.97
2017-06-28T03:18:25.727Z,6.10
2017-06-28T03:20:53.999Z,7.33
2017-06-28T03:23:21.524Z,5.90
2017-06-28T03:25:49.032Z,5.60
2017-06-28T03:28:16.555Z,6.23
2017-06-28T03:30:44.065Z,6.10
2017-06-28T03:33:11.599Z,5.23
2017-06-28T03:35:39.289Z,5.90
2017-06-28T03:38:06.807Z,5.60
2017-06-28T03:40:34.333Z,6.07
2017-06-28T03:43:01.840Z,6.43
2017-06-28T03:45:29.359Z,5.97
2017-06-28T03:47:56.863Z,6.27
2017-06-28T03:50:24.403Z,6.50
2017-06-28T03:52:51.907Z,6.10
2017-06-28T03:55:19.406Z,5.43
2017-06-28T03:57:46.926Z,6.60
2017-06-28T04:00:14.431Z,6.57
2017-06-28T04:02:41.957Z,5.67
2017-06-28T04:05:09.468Z,5.70
2017-06-28T04:07:37.006Z,5.40
2017-06-28T04:10:04.507Z,6.27
2017-06-28T04:12:32.011Z,4.90
2017-06-28T04:14:59.528Z,6.07
2017-06-28T04:17:27.032Z,5.37
2017-06-28T04:19:54.554Z,5.20
2017-06-28T04:22:22.057Z,5.10
2017-06-28T04:24:49.575Z,5.73
2017-06-28T04:27:17.076Z,6.47
2017-06-28T04:29:44.576Z,5.90
2017-06-28T04:32:12.100Z,5.40
2017-06-28T04:34:39.610Z,5.10
2017-06-28T04:37:07.136Z,5.17
2017-06-28T04:39:34.647Z,6.00
2017-06-28T04:42:02.192Z,5.73
2017-06-28T04:44:29.703Z,6.03
2017-06-28T04:46:57.208Z,6.30
2017-06-28T04:49:24.732Z,5.60
2017-06-28T04:51:52.230Z,5.53
2017-06-28T04:54:19.756Z,5.43
2017-06-28T04:56:47.260Z,5.70
2017-06-28T04:59:14.779Z,7.03
2017-06-28T05:01:42.284Z,6.33
2017-06-28T05:04:09.790Z,6.27
2017-06-28T05:06:37.308Z,6.27
2017-06-28T05:09:05.574Z,6.40
2017-06-28T05:11:33.093Z,5.60
2017-06-28T05:14:00.591Z,6.10
2017-06-28T05:16:28.113Z,6.03
2017-06-28T05:18:55.617Z,6.00
2017-06-28T05:21:23.891Z,7.33
2017-06-28T05:23:51.411Z,7.43
2017-06-28T05:26:18.919Z,7.30
2017-06-28T05:28:46.453Z,6.83
2017-06-28T05:31:13.955Z,7.20
2017-06-28T05:33:41.479Z,7.23
2017-06-28T05:36:08.983Z,8.10
2017-06-28T05:38:36.516Z,7.50
2017-06-28T05:41:04.020Z,7.30
2017-06-28T05:43:31.527Z,7.93
2017-06-28T05:45:59.047Z,7.87
2017-06-28T05:48:26.556Z,7.33
2017-06-28T05:50:54.071Z,8.43
2017-06-28T05:53:21.570Z,7.63
2017-06-28T05:55:49.869Z,7.80
2017-06-28T05:58:17.371Z,7.60
2017-06-28T06:00:44.879Z,7.27
2017-06-28T06:03:12.404Z,7.00
2017-06-28T06:05:40.685Z,6.93
2017-06-28T06:08:08.242Z,6.10
2017-06-28T06:10:35.760Z,6.37
2017-06-28T06:13:03.307Z,5.30
2017-06-28T06:15:30.814Z,6.10
2017-06-28T06:17:59.074Z,6.27
2017-06-28T06:20:26.602Z,5.97
2017-06-28T06:22:54.106Z,5.60
2017-06-28T06:25:21.631Z,5.53
2017-06-28T06:27:49.140Z,4.93
2017-06-28T06:30:16.679Z,5.13
2017-06-28T06:32:44.951Z,5.53
2017-06-28T06:35:12.451Z,4.60
2017-06-28T06:37:39.972Z,4.20
2017-06-28T06:40:08.244Z,4.70
2017-06-28T06:42:35.763Z,4.40
2017-06-28T06:45:03.263Z,3.90
2017-06-28T06:47:30.787Z,4.13
2017-06-28T06:49:58.288Z,3.37
2017-06-28T06:52:25.782Z,4.07
2017-06-28T06:54:53.299Z,3.60
2017-06-28T06:57:20.807Z,3.10
2017-06-28T06:59:48.323Z,3.30
2017-06-28T07:02:15.824Z,3.43
2017-06-28T07:04:43.360Z,3.40
2017-06-28T07:07:10.871Z,3.40
2017-06-28T07:09:38.370Z,3.13
2017-06-28T07:12:05.891Z,2.87
2017-06-28T07:14:33.383Z,2.87
2017-06-28T07:17:00.907Z,2.90
2017-06-28T07:19:28.407Z,2.83
2017-06-28T07:21:55.931Z,2.50
2017-06-28T07:24:23.429Z,3.00
2017-06-28T07:26:50.930Z,2.90
2017-06-28T07:29:18.444Z,2.97
2017-06-28T07:31:45.947Z,2.90
2017-06-28T07:34:13.460Z,2.70
2017-06-28T07:36:40.997Z,2.60
2017-06-28T07:39:09.295Z,2.83
2017-06-28T07:41:36.807Z,2.40
2017-06-28T07:44:04.316Z,2.93
2017-06-28T07:46:31.843Z,2.60
2017-06-28T07:49:00.111Z,2.50
2017-06-28T07:51:28.075Z,3.20
2017-06-28T07:53:55.583Z,2.40
2017-06-28T07:56:23.111Z,2.57
2017-06-28T07:58:51.388Z,2.90
2017-06-28T08:01:19.656Z,2.03
2017-06-28T08:03:47.946Z,2.37
2017-06-28T08:06:15.447Z,2.10
2017-06-28T08:08:42.968Z,2.23
2017-06-28T08:11:10.475Z,2.67
2017-06-28T08:13:37.991Z,2.20
2017-06-28T08:16:05.493Z,1.80
2017-06-28T08:18:32.991Z,1.73
2017-06-28T08:21:01.277Z,1.83
2017-06-28T08:23:28.778Z,1.60
2017-06-28T08:25:56.295Z,1.80
2017-06-28T08:28:23.790Z,1.50
2017-06-28T08:30:51.307Z,1.40
2017-06-28T08:33:18.802Z,2.83
2017-06-28T08:35:46.308Z,1.60
2017-06-28T08:38:13.827Z,1.20
2017-06-28T08:40:41.330Z,1.50
2017-06-28T08:43:08.851Z,1.40
2017-06-28T08:45:36.354Z,1.60
2017-06-28T08:48:03.881Z,1.40
2017-06-28T08:50:31.382Z,1.40
2017-06-28T08:52:58.886Z,1.50
2017-06-28T08:55:26.405Z,1.70
2017-06-28T08:57:53.907Z,1.40
2017-06-28T09:00:21.423Z,1.40
2017-06-28T09:02:48.924Z,1.53
2017-06-28T09:05:16.451Z,1.20
2017-06-28T09:07:44.207Z,1.40
2017-06-28T09:10:11.716Z,1.23
2017-06-28T09:12:39.245Z,1.47
2017-06-28T09:15:06.748Z,1.60
2017-06-28T09:17:34.264Z,2.00
2017-06-28T09:20:01.759Z,1.80
2017-06-28T09:22:29.282Z,1.87
2017-06-28T09:24:56.779Z,1.63
2017-06-28T09:27:25.043Z,1.80
2017-06-28T09:29:53.323Z,1.77
2017-06-28T09:32:20.890Z,1.60
2017-06-28T09:34:48.414Z,1.80
2017-06-28T09:37:15.915Z,1.73
2017-06-28T09:39:43.436Z,1.80
2017-06-28T09:42:10.934Z,1.50
2017-06-28T09:44:38.436Z,1.37
2017-06-28T09:47:05.951Z,1.40
2017-06-28T09:49:33.456Z,1.30
2017-06-28T09:52:00.975Z,1.60
2017-06-28T09:54:28.471Z,1.40
2017-06-28T09:56:56.004Z,1.93
2017-06-28T09:59:23.507Z,1.43
2017-06-28T10:01:51.003Z,1.30
2017-06-28T10:04:18.519Z,1.57
2017-06-28T10:06:46.019Z,1.20
2017-06-28T10:09:13.535Z,1.87
2017-06-28T10:11:41.030Z,1.47
2017-06-28T10:14:08.574Z,1.60
2017-06-28T10:16:36.071Z,1.70
2017-06-28T10:19:03.575Z,1.27
2017-06-28T10:21:31.099Z,1.40
2017-06-28T10:23:58.594Z,1.50
2017-06-28T10:26:26.111Z,1.40
2017-06-28T10:28:53.608Z,1.20
2017-06-28T10:31:21.127Z,1.47
2017-06-28T10:33:48.627Z,1.80
2017-06-28T10:36:16.129Z,1.67
2017-06-28T10:38:43.731Z,1.43
2017-06-28T10:41:11.247Z,1.33
2017-06-28T10:43:38.767Z,1.50
2017-06-28T10:46:06.267Z,1.50
2017-06-28T10:48:33.799Z,1.77
2017-06-28T10:51:02.059Z,1.70
2017-06-28T10:53:30.318Z,1.70
2017-06-28T10:55:57.838Z,1.53
2017-06-28T10:58:25.348Z,1.47
2017-06-28T11:00:52.866Z,1.60
2017-06-28T11:03:20.363Z,1.47
2017-06-28T11:05:47.884Z,1.50
2017-06-28T11:08:15.678Z,1.50
2017-06-28T11:10:43.179Z,1.60
2017-06-28T11:13:10.699Z,1.47
2017-06-28T11:15:38.211Z,1.47
2017-06-28T11:18:05.731Z,1.70
2017-06-28T11:20:33.995Z,1.00
2017-06-28T11:23:01.530Z,1.00
2017-06-28T11:25:29.034Z,1.00
2017-06-28T11:27:56.536Z,1.00
2017-06-28T11:30:24.058Z,1.23
2017-06-28T11:32:51.555Z,1.30
2017-06-28T11:35:19.070Z,0.90
2017-06-28T11:37:46.576Z,1.20
2017-06-28T11:40:14.103Z,1.40
2017-06-28T11:42:41.615Z,1.20
2017-06-28T11:45:09.116Z,1.23
2017-06-28T11:47:36.635Z,1.43
2017-06-28T11:50:04.139Z,1.10
2017-06-28T11:52:31.655Z,1.03
2017-06-28T11:54:59.151Z,1.37
2017-06-28T11:57:26.675Z,1.10
2017-06-28T11:59:54.934Z,0.97
2017-06-28T12:02:22.432Z,0.93
2017-06-28T12:04:49.954Z,1.20
2017-06-28T12:07:17.472Z,1.03
2017-06-28T12:09:44.996Z,1.20
2017-06-28T12:12:12.542Z,1.40
2017-06-28T12:14:40.853Z,1.17
2017-06-28T12:17:08.767Z,1.30
2017-06-28T12:19:36.274Z,1.00
2017-06-28T12:22:03.794Z,1.20
2017-06-28T12:24:31.297Z,1.20
2017-06-28T12:26:58.811Z,1.43
2017-06-28T12:29:26.307Z,0.93
2017-06-28T12:31:53.828Z,1.40
2017-06-28T12:34:21.325Z,1.20
2017-06-28T12:36:48.822Z,1.20
2017-06-28T12:39:16.331Z,1.13
2017-06-28T12:41:43.840Z,1.57
2017-06-28T12:44:11.352Z,1.50
2017-06-28T12:46:38.855Z,1.20
2017-06-28T12:49:06.387Z,1.40
2017-06-28T12:51:33.884Z,1.53
2017-06-28T12:54:01.393Z,1.53
2017-06-28T12:56:28.909Z,1.70
2017-06-28T12:58:57.183Z,1.27
2017-06-28T13:01:24.704Z,1.60
2017-06-28T13:03:52.204Z,1.37
2017-06-28T13:06:20.507Z,1.27
2017-06-28T13:08:48.008Z,1.80
2017-06-28T13:11:15.519Z,1.53
2017-06-28T13:13:43.038Z,2.10
2017-06-28T13:16:10.544Z,1.73
2017-06-28T13:18:38.071Z,1.40
2017-06-28T13:21:06.392Z,1.20
2017-06-28T13:23:33.896Z,1.63
2017-06-28T13:26:01.407Z,1.80
2017-06-28T13:28:28.907Z,2.30
2017-06-28T13:30:56.427Z,1.50
2017-06-28T13:33:23.936Z,1.63
2017-06-28T13:35:51.431Z,1.80
2017-06-28T13:38:18.973Z,2.00
2017-06-28T13:40:46.495Z,1.93
2017-06-28T13:43:14.030Z,1.50
2017-06-28T13:45:41.526Z,1.90
2017-06-28T13:48:09.027Z,1.90
2017-06-28T13:50:36.542Z,1.60
2017-06-28T13:53:09.943Z,1.40
2017-06-28T13:55:37.472Z,2.00
2017-06-28T13:58:04.972Z,2.00
2017-06-28T14:00:33.245Z,1.40
2017-06-28T14:03:01.534Z,1.70
2017-06-28T14:05:29.031Z,2.10
2017-06-28T14:07:56.555Z,1.90
2017-06-28T14:10:24.058Z,2.00
2017-06-28T14:12:51.573Z,2.10
2017-06-28T14:15:19.086Z,1.60
2017-06-28T14:17:46.584Z,2.60
2017-06-28T14:20:14.103Z,2.00
2017-06-28T14:22:41.606Z,1.80
2017-06-28T14:25:09.135Z,1.80
2017-06-28T14:27:36.636Z,2.00
2017-06-28T14:30:04.139Z,2.10
2017-06-28T14:32:31.659Z,2.07
2017-06-28T14:34:59.167Z,1.90
2017-06-28T14:37:26.683Z,2.23
2017-06-28T14:39:54.179Z,2.13
2017-06-28T14:42:21.694Z,2.17
2017-06-28T14:44:49.191Z,2.20
2017-06-28T14:47:16.711Z,2.40
2017-06-28T14:49:44.206Z,2.33
2017-06-28T14:52:11.703Z,2.43
2017-06-28T14:54:39.219Z,2.00
2017-06-28T14:57:06.715Z,2.40
2017-06-28T14:59:34.238Z,2.30
2017-06-28T15:02:01.735Z,2.30
2017-06-28T15:04:29.253Z,2.43
2017-06-28T15:06:56.804Z,2.73
2017-06-28T15:09:25.103Z,3.10
2017-06-28T15:11:53.427Z,2.40
2017-06-28T15:14:20.937Z,2.30
2017-06-28T15:16:49.226Z,2.80
2017-06-28T15:19:17.495Z,2.50
2017-06-28T15:21:45.023Z,2.20
2017-06-28T15:24:12.523Z,2.67
2017-06-28T15:26:40.022Z,3.00
2017-06-28T15:29:07.564Z,2.53
2017-06-28T15:31:35.067Z,2.97
2017-06-28T15:34:02.579Z,3.43
2017-06-28T15:36:30.079Z,3.07
2017-06-28T15:38:57.602Z,3.53
2017-06-28T15:41:25.104Z,3.50
2017-06-28T15:43:52.603Z,2.63
2017-06-28T15:46:20.129Z,3.00
2017-06-28T15:48:47.732Z,2.90
2017-06-28T15:51:15.251Z,3.50
2017-06-28T15:54:09.083Z,2.93
2017-06-28T15:56:46.470Z,3.77
2017-06-28T15:59:13.969Z,3.67
2017-06-28T16:01:41.495Z,2.97
2017-06-28T16:04:08.990Z,2.90
2017-06-28T16:06:37.250Z,2.73
2017-06-28T16:09:04.763Z,3.90
2017-06-28T16:11:32.263Z,4.63
2017-06-28T16:13:59.775Z,5.00
2017-06-28T16:16:27.276Z,4.20
2017-06-28T16:18:54.795Z,4.57
2017-06-28T16:21:22.299Z,4.60
2017-06-28T16:23:49.799Z,4.70
2017-06-28T16:26:17.378Z,5.07
2017-06-28T16:28:44.875Z,3.80
2017-06-28T16:31:12.387Z,4.07
2017-06-28T16:33:39.887Z,3.87
2017-06-28T16:36:07.422Z,4.73
2017-06-28T16:38:34.989Z,4.57
2017-06-28T16:41:02.508Z,5.67
2017-06-28T16:43:30.075Z,6.47
2017-06-28T16:45:57.583Z,6.27
2017-06-28T16:48:25.099Z,5.03
2017-06-28T16:50:52.664Z,4.70
2017-06-28T16:53:20.191Z,4.10
2017-06-28T16:55:47.761Z,4.40
2017-06-28T16:58:15.320Z,4.03
2017-06-28T17:00:42.900Z,3.90
2017-06-28T17:03:10.407Z,4.30
2017-06-28T17:05:37.927Z,4.97
2017-06-28T17:08:05.422Z,4.67
2017-06-28T17:10:33.775Z,4.30
2017-06-28T17:13:01.332Z,4.67
2017-06-28T17:15:28.892Z,5.17
2017-06-28T17:17:56.420Z,4.50
2017-06-28T17:20:23.922Z,5.70
2017-06-28T17:22:51.500Z,4.90
2017-06-28T17:25:19.176Z,5.20
2017-06-28T17:27:47.525Z,4.70
2017-06-28T17:30:15.027Z,4.43
2017-06-28T17:32:42.527Z,3.90
2017-06-28T17:35:10.039Z,4.30
2017-06-28T17:37:37.539Z,4.77
2017-06-28T17:40:05.052Z,4.33
2017-06-28T17:42:32.554Z,4.40
2017-06-28T17:45:00.132Z,4.33
2017-06-28T17:47:27.635Z,4.10
2017-06-28T17:49:55.158Z,3.83
2017-06-28T17:52:22.654Z,3.93
2017-06-28T17:54:50.151Z,4.33
2017-06-28T17:57:17.679Z,4.23
2017-06-28T17:59:45.181Z,3.80
2017-06-28T18:02:12.764Z,4.27
2017-06-28T18:04:41.032Z,3.67
2017-06-28T18:07:08.552Z,3.50
2017-06-28T18:09:36.060Z,3.80
2017-06-28T18:12:03.596Z,4.17
2017-06-28T18:14:31.135Z,4.00
2017-06-28T18:16:58.634Z,3.63
2017-06-28T18:19:26.155Z,4.00
2017-06-28T18:21:53.721Z,4.30
2017-06-28T18:24:21.243Z,3.70
2017-06-28T18:26:48.749Z,4.03
2017-06-28T18:29:16.257Z,4.07
2017-06-28T18:31:43.844Z,4.10
2017-06-28T18:34:11.412Z,4.37
2017-06-28T18:36:38.934Z,3.40
2017-06-28T18:39:06.436Z,4.10
2017-06-28T18:41:33.962Z,4.00
2017-06-28T18:44:01.462Z,3.90
2017-06-28T18:46:28.968Z,4.53
2017-06-28T18:48:56.492Z,5.40
2017-06-28T18:51:24.767Z,4.80
2017-06-28T18:53:53.055Z,4.43
2017-06-28T18:56:20.559Z,4.20
2017-06-28T18:58:48.080Z,4.90
2017-06-28T19:01:15.647Z,4.07
2017-06-28T19:03:43.212Z,4.83
2017-06-28T19:06:10.735Z,4.60
2017-06-28T19:08:39.070Z,5.40
2017-06-28T19:11:06.596Z,6.33
2017-06-28T19:13:34.108Z,6.53
2017-06-28T19:16:01.701Z,6.83
2017-06-28T19:18:29.219Z,5.70
2017-06-28T19:20:56.725Z,5.43
2017-06-28T19:23:24.248Z,6.07
2017-06-28T19:25:51.820Z,5.63
2017-06-28T19:28:19.343Z,7.00
2017-06-28T19:30:46.911Z,5.30
2017-06-28T19:33:14.440Z,5.97
2017-06-28T19:35:41.943Z,6.03
2017-06-28T19:38:09.454Z,5.60
2017-06-28T19:40:36.995Z,5.70
2017-06-28T19:43:04.500Z,5.40
2017-06-28T19:45:32.080Z,5.00
2017-06-28T19:47:59.590Z,6.00
2017-06-28T19:50:27.112Z,5.67
2017-06-28T19:52:55.384Z,6.30
2017-06-28T19:55:22.886Z,4.87
2017-06-28T19:57:50.403Z,5.20
2017-06-28T20:00:17.911Z,6.70
2017-06-28T20:02:45.438Z,5.70
2017-06-28T20:05:12.935Z,5.50
2017-06-28T20:07:40.459Z,5.33
2017-06-28T20:10:07.963Z,5.27
2017-06-28T20:12:35.463Z,5.93
2017-06-28T20:15:02.987Z,6.00
2017-06-28T20:17:30.486Z,5.27
2017-06-28T20:19:58.014Z,5.00
2017-06-28T20:22:25.516Z,5.80
2017-06-28T20:24:53.054Z,5.80
2017-06-28T20:27:20.593Z,6.10
2017-06-28T20:29:48.100Z,5.67
2017-06-28T20:32:15.615Z,5.63
2017-06-28T20:34:43.115Z,6.40
2017-06-28T20:37:10.666Z,5.37
2017-06-28T20:39:38.171Z,5.03
2017-06-28T20:42:05.708Z,5.60
2017-06-28T20:44:33.317Z,5.60
2017-06-28T20:47:00.818Z,5.50
2017-06-28T20:49:28.339Z,6.37
2017-06-28T20:51:55.843Z,4.90
2017-06-28T20:54:23.358Z,5.77
2017-06-28T20:56:50.851Z,5.10
2017-06-28T20:59:18.377Z,5.50
2017-06-28T21:01:45.890Z,5.53
2017-06-28T21:04:13.386Z,5.70
2017-06-28T21:06:40.919Z,5.30
2017-06-28T21:09:08.419Z,5.23
2017-06-28T21:11:35.944Z,4.77
2017-06-28T21:14:04.212Z,5.37
2017-06-28T21:16:31.739Z,4.97
2017-06-28T21:18:59.244Z,5.07
2017-06-28T21:21:26.759Z,5.30
2017-06-28T21:23:54.284Z,5.10
2017-06-28T21:26:21.791Z,5.20
2017-06-28T21:28:49.308Z,4.47
2017-06-28T21:31:16.811Z,4.70
2017-06-28T21:33:44.339Z,4.80
2017-06-28T21:36:11.848Z,5.20
2017-06-28T21:38:40.119Z,5.10
2017-06-28T21:41:08.408Z,4.47
2017-06-28T21:43:35.916Z,4.40
2017-06-28T21:46:03.443Z,4.33
2017-06-28T21:48:30.955Z,5.00
2017-06-28T21:50:58.479Z,5.00
2017-06-28T21:53:25.981Z,4.57
2017-06-28T21:55:53.483Z,4.60
2017-06-28T21:58:21.002Z,4.83
2017-06-28T22:00:49.276Z,5.00
2017-06-28T22:03:16.796Z,4.70
2017-06-28T22:05:44.298Z,4.60
2017-06-28T22:08:12.592Z,4.63
2017-06-28T22:10:40.091Z,4.90
2017-06-28T22:13:07.595Z,4.77
2017-06-28T22:15:35.119Z,4.83
2017-06-28T22:18:02.619Z,3.83
2017-06-28T22:20:38.083Z,3.60
2017-06-28T22:23:05.586Z,3.50
2017-06-28T22:25:33.103Z,3.60
2017-06-28T22:28:00.606Z,3.47
2017-06-28T22:30:28.130Z,3.63
2017-06-28T22:32:55.628Z,4.10
2017-06-28T22:35:23.131Z,3.53
2017-06-28T22:37:50.654Z,4.30
2017-06-28T22:40:18.154Z,4.20
2017-06-28T22:42:45.667Z,3.20
2017-06-28T22:45:13.169Z,2.00
2017-06-28T22:47:40.694Z,1.83
2017-06-28T22:50:08.958Z,1.23
2017-06-28T22:52:36.465Z,1.07
2017-06-28T22:55:03.982Z,1.33
2017-06-28T22:57:31.485Z,1.40
2017-06-28T22:59:59.007Z,1.00
2017-06-28T23:02:26.508Z,1.20
2017-06-28T23:04:54.027Z,1.17
2017-06-28T23:07:21.531Z,1.60
2017-06-28T23:09:49.031Z,1.33
2017-06-28T23:12:17.311Z,2.10
2017-06-28T23:14:44.821Z,1.20
2017-06-28T23:17:12.344Z,2.03
2017-06-28T23:19:39.843Z,1.90
2017-06-28T23:22:07.362Z,1.60
2017-06-28T23:24:34.864Z,1.87
2017-06-28T23:27:02.367Z,1.77
2017-06-28T23:29:29.882Z,1.83
2017-06-28T23:31:57.388Z,1.70
2017-06-28T23:34:24.911Z,1.70
2017-06-28T23:36:52.411Z,2.03
2017-06-28T23:39:19.933Z,1.67
2017-06-28T23:41:47.428Z,1.80
2017-06-28T23:44:14.927Z,1.80
2017-06-28T23:46:42.443Z,2.60
2017-06-28T23:49:09.947Z,1.50
2017-06-28T23:51:37.462Z,2.43
2017-06-28T23:54:04.958Z,2.07
2017-06-28T23:56:32.482Z,2.40
2017-06-28T23:58:59.985Z,2.60
